| time (UTC) | temp F | wind direction | speed knots | gust knots | rain 1hr in | rain 24hr in | rain mn in | humidity % | barometer mb |
| 20260507163200 | 54 | 327 | 3.5 | 4.3 | 0.00 | 0.00 | 0.00 | 53 | 1006.9 |
| 20260507162655 | 53 | 16 | 1.7 | 2.6 | 0.00 | 0.00 | 0.00 | 54 | 1007.1 |
| 20260507162152 | 52 | 320 | 3.5 | 4.3 | 0.00 | 0.00 | 0.00 | 52 | 1007.1 |
| 20260507161648 | 50 | 15 | 4.3 | 5.2 | 0.00 | 0.00 | 0.00 | 54 | 1007.2 |
| 20260507161145 | 51 | 34 | 3.5 | 4.3 | 0.00 | 0.00 | 0.00 | 54 | 1007.3 |
| 20260507160641 | 50 | 328 | 3.5 | 5.2 | 0.00 | 0.00 | 0.00 | 54 | 1007.4 |
| 20260507160138 | 51 | 357 | 3.5 | 4.3 | 0.00 | 0.00 | 0.00 | 56 | 1007.5 |
| 20260507155633 | 53 | 281 | 3.5 | 4.3 | 0.00 | 0.00 | 0.00 | 53 | 1007.5 |
| 20260507155130 | 51 | 332 | 2.6 | 2.6 | 0.00 | 0.00 | 0.00 | 58 | 1007.8 |
| 20260507154627 | 51 | 308 | 3.5 | 4.3 | 0.00 | 0.00 | 0.00 | 52 | 1007.6 |
| 20260507154124 | 51 | 9 | 1.7 | 1.7 | 0.00 | 0.00 | 0.00 | 55 | 1007.7 |
| 20260507153615 | 51 | 299 | 2.6 | 2.6 | 0.00 | 0.00 | 0.00 | 57 | 1007.7 |
| 20260507153112 | 50 | 334 | 4.3 | 6.1 | 0.00 | 0.00 | 0.00 | 56 | 1007.7 |
| 20260507152608 | 51 | 333 | 3.5 | 4.3 | 0.00 | 0.00 | 0.00 | 58 | 1007.7 |
| 20260507152104 | 50 | 17 | 1.7 | 1.7 | 0.00 | 0.00 | 0.00 | 55 | 1007.7 |
| 20260507151600 | 49 | 319 | 5.2 | 6.1 | 0.00 | 0.00 | 0.00 | 56 | 1007.8 |
| 20260507151058 | 50 | 325 | 1.7 | 2.6 | 0.00 | 0.00 | 0.00 | 60 | 1007.8 |
| 20260507150555 | 50 | 339 | 4.3 | 5.2 | 0.00 | 0.00 | 0.00 | 56 | 1007.7 |
| 20260507150051 | 50 | 129 | 3.5 | 5.2 | 0.00 | 0.00 | 0.00 | 53 | 1007.8 |
| 20260507145546 | 50 | 235 | 2.6 | 2.6 | 0.00 | 0.00 | 0.00 | 56 | 1007.7 |
| 20260507145044 | 50 | 303 | 2.6 | 2.6 | 0.00 | 0.00 | 0.00 | 60 | 1007.9 |
| 20260507144540 | 49 | 331 | 2.6 | 2.6 | 0.00 | 0.00 | 0.00 | 62 | 1007.7 |
| 20260507144038 | 48 | 322 | 3.5 | 4.3 | 0.00 | 0.00 | 0.00 | 59 | 1007.8 |
| 20260507143535 | 49 | 329 | 3.5 | 5.2 | 0.00 | 0.00 | 0.00 | 57 | 1007.8 |
| 20260507143033 | 47 | 352 | 4.3 | 5.2 | 0.00 | 0.00 | 0.00 | 60 | 1007.8 |
| 20260507142527 | 48 | 289 | 2.6 | 4.3 | 0.00 | 0.00 | 0.00 | 58 | 1008.2 |
| 20260507142025 | 48 | 326 | 3.5 | 4.3 | 0.00 | 0.00 | 0.00 | 62 | 1007.9 |
| 20260507141521 | 48 | 307 | 4.3 | 5.2 | 0.00 | 0.00 | 0.00 | 61 | 1007.9 |
| 20260507141018 | 48 | 326 | 5.2 | 6.1 | 0.00 | 0.00 | 0.00 | 63 | 1008.1 |
| 20260507140515 | 48 | 29 | 1.7 | 1.7 | 0.00 | 0.00 | 0.00 | 63 | 1007.9 |
| 20260507140012 | 47 | 27 | 2.6 | 2.6 | 0.00 | 0.00 | 0.00 | 64 | 1007.8 |
| 20260507135509 | 47 | 233 | 3.5 | 5.2 | 0.00 | 0.00 | 0.00 | 65 | 1008.0 |
| 20260507135006 | 46 | 5 | 1.7 | 1.7 | 0.00 | 0.00 | 0.00 | 66 | 1008.1 |
| 20260507134503 | 47 | 264 | 2.6 | 4.3 | 0.00 | 0.00 | 0.00 | 64 | 1007.9 |
| 20260507133958 | 46 | 336 | 3.5 | 4.3 | 0.00 | 0.00 | 0.00 | 64 | 1007.8 |
| 20260507133454 | 45 | 358 | 1.7 | 2.6 | 0.00 | 0.00 | 0.00 | 71 | 1007.8 |
| 20260507132953 | 45 | 324 | 3.5 | 4.3 | 0.00 | 0.00 | 0.00 | 65 | 1007.8 |
| 20260507132449 | 45 | 304 | 5.2 | 6.1 | 0.00 | 0.00 | 0.00 | 66 | 1007.9 |
| 20260507131945 | 45 | 324 | 4.3 | 5.2 | 0.00 | 0.00 | 0.00 | 67 | 1007.9 |
| 20260507131442 | 44 | 42 | 1.7 | 1.7 | 0.00 | 0.00 | 0.00 | 67 | 1008.1 |
| 20260507130939 | 44 | 47 | 0.9 | 1.7 | 0.00 | 0.00 | 0.00 | 70 | 1008.2 |
| 20260507130436 | 44 | 310 | 4.3 | 5.2 | 0.00 | 0.00 | 0.00 | 69 | 1008.1 |
| 20260507125935 | 44 | 112 | 0.9 | 0.9 | 0.00 | 0.00 | 0.00 | 65 | 1008.1 |
| 20260507125433 | 44 | 305 | 0.9 | 0.9 | 0.00 | 0.00 | 0.00 | 70 | 1007.8 |
| 20260507124930 | 43 | 46 | 0.9 | 1.7 | 0.00 | 0.00 | 0.00 | 69 | 1008.2 |
| 20260507124426 | 44 | 352 | 2.6 | 2.6 | 0.00 | 0.00 | 0.00 | 70 | 1007.9 |
| 20260507123925 | 43 | 22 | 1.7 | 2.6 | 0.00 | 0.00 | 0.00 | 71 | 1007.9 |
| 20260507123422 | 43 | 295 | 2.6 | 4.3 | 0.00 | 0.00 | 0.00 | 68 | 1008.0 |
| 20260507122918 | 43 | 103 | 1.7 | 1.7 | 0.00 | 0.00 | 0.00 | 67 | 1007.9 |
| 20260507122413 | 43 | 354 | 1.7 | 2.6 | 0.00 | 0.00 | 0.00 | 72 | 1008.0 |
| 20260507121910 | 43 | 346 | 1.7 | 1.7 | 0.00 | 0.00 | 0.00 | 71 | 1008.1 |
| 20260507121405 | 43 | 189 | 0.9 | 0.9 | 0.00 | 0.00 | 0.00 | 72 | 1008.0 |
| 20260507120902 | 42 | 326 | 1.7 | 2.6 | 0.00 | 0.00 | 0.00 | 74 | 1008.0 |
| 20260507120358 | 42 | 346 | 2.6 | 2.6 | 0.00 | 0.00 | 0.00 | 74 | 1008.0 |
| 20260507115854 | 42 | 113 | 1.7 | 1.7 | 0.00 | 0.00 | 0.00 | 77 | 1008.0 |
| 20260507115350 | 41 | 314 | 0.9 | 1.7 | 0.00 | 0.00 | 0.00 | 75 | 1007.9 |
| 20260507114846 | 41 | 329 | 0.9 | 0.9 | 0.00 | 0.00 | 0.00 | 76 | 1007.9 |
| 20260507114344 | 41 | 52 | 0.9 | 0.9 | 0.00 | 0.00 | 0.00 | 77 | 1008.0 |
| 20260507113841 | 40 | 36 | 0.9 | 1.7 | 0.00 | 0.00 | 0.00 | 78 | 1007.9 |
| 20260507113338 | 40 | 37 | 0.9 | 0.9 | 0.00 | 0.00 | 0.00 | 78 | 1007.8 |
| 20260507112835 | 39 | 267 | 2.6 | 2.6 | 0.00 | 0.00 | 0.00 | 79 | 1007.6 |
| 20260507112332 | 39 | 340 | 2.6 | 4.3 | 0.00 | 0.00 | 0.00 | 80 | 1007.7 |
| 20260507111830 | 39 | 44 | 0.0 | 0.9 | 0.00 | 0.00 | 0.00 | 83 | 1007.6 |
| 20260507111326 | 39 | 75 | 1.7 | 2.6 | 0.00 | 0.00 | 0.00 | 82 | 1007.5 |
| 20260507110823 | 39 | 346 | 1.7 | 1.7 | 0.00 | 0.00 | 0.00 | 83 | 1007.9 |
| 20260507110319 | 39 | 6 | 0.9 | 1.7 | 0.00 | 0.00 | 0.00 | 83 | 1007.4 |
| 20260507105816 | 38 | 356 | 0.9 | 0.9 | 0.00 | 0.00 | 0.00 | 85 | 1007.6 |
| 20260507105312 | 38 | 222 | 2.6 | 4.3 | 0.00 | 0.00 | 0.00 | 85 | 1007.6 |
| 20260507104809 | 38 | 235 | 1.7 | 1.7 | 0.00 | 0.00 | 0.00 | 86 | 1007.3 |
| 20260507104306 | 38 | 247 | 1.7 | 1.7 | 0.00 | 0.00 | 0.00 | 86 | 1007.6 |
| 20260507103802 | 38 | 333 | 1.7 | 1.7 | 0.00 | 0.00 | 0.00 | 86 | 1007.4 |
| 20260507103258 | 38 | 352 | 0.9 | 0.9 | 0.00 | 0.00 | 0.00 | 86 | 1007.4 |
| 20260507102755 | 38 | 305 | 2.6 | 4.3 | 0.00 | 0.00 | 0.00 | 87 | 1007.1 |
| 20260507102252 | 38 | 312 | 2.6 | 4.3 | 0.00 | 0.00 | 0.00 | 88 | 1007.2 |
| 20260507101748 | 38 | 303 | 5.2 | 6.1 | 0.00 | 0.00 | 0.00 | 88 | 1007.2 |
| 20260507101243 | 38 | 345 | 2.6 | 2.6 | 0.00 | 0.00 | 0.00 | 89 | 1006.7 |
| 20260507100740 | 38 | 308 | 2.6 | 4.3 | 0.00 | 0.00 | 0.00 | 90 | 1006.7 |
| 20260507100239 | 38 | 305 | 3.5 | 4.3 | 0.00 | 0.00 | 0.00 | 90 | 1007.0 |
| 20260507095736 | 38 | 300 | 3.5 | 5.2 | 0.00 | 0.00 | 0.00 | 91 | 1006.9 |
| 20260507095232 | 38 | 355 | 2.6 | 2.6 | 0.00 | 0.00 | 0.00 | 92 | 1007.0 |
| 20260507094729 | 38 | 271 | 2.6 | 2.6 | 0.00 | 0.00 | 0.00 | 94 | 1007.0 |
| 20260507094226 | 39 | 300 | 1.7 | 2.6 | 0.00 | 0.00 | 0.00 | 95 | 1007.0 |
| 20260507093723 | 39 | 7 | 0.9 | 1.7 | 0.00 | 0.00 | 0.00 | 96 | 1006.9 |
| 20260507093222 | 39 | 358 | 0.9 | 1.7 | 0.00 | 0.00 | 0.00 | 96 | 1006.9 |
| 20260507092719 | 39 | 325 | 1.7 | 1.7 | 0.00 | 0.00 | 0.00 | 96 | 1006.9 |
| 20260507092215 | 39 | 39 | 0.0 | 0.9 | 0.00 | 0.00 | 0.00 | 95 | 1007.0 |
| 20260507091711 | 39 | 358 | 1.7 | 1.7 | 0.00 | 0.00 | 0.00 | 95 | 1006.9 |
| 20260507091208 | 39 | 307 | 1.7 | 1.7 | 0.00 | 0.00 | 0.00 | 94 | 1006.9 |
| 20260507090703 | 39 | 42 | 0.0 | 0.9 | 0.00 | 0.00 | 0.00 | 94 | 1006.7 |
| 20260507090200 | 40 | 277 | 1.7 | 2.6 | 0.00 | 0.00 | 0.00 | 93 | 1006.5 |
| 20260507085657 | 40 | 26 | 2.6 | 4.3 | 0.00 | 0.00 | 0.00 | 93 | 1006.9 |
| 20260507085154 | 40 | 304 | 2.6 | 4.3 | 0.00 | 0.00 | 0.00 | 92 | 1006.9 |
| 20260507084651 | 40 | 5 | 2.6 | 4.3 | 0.00 | 0.00 | 0.00 | 92 | 1006.7 |
| 20260507084147 | 40 | 340 | 2.6 | 4.3 | 0.00 | 0.00 | 0.00 | 92 | 1006.7 |
| 20260507083644 | 41 | 76 | 2.6 | 4.3 | 0.00 | 0.00 | 0.00 | 93 | 1006.7 |
| 20260507083141 | 41 | 326 | 3.5 | 4.3 | 0.00 | 0.00 | 0.00 | 92 | 1007.0 |
| 20260507082637 | 41 | 334 | 2.6 | 2.6 | 0.00 | 0.00 | 0.00 | 92 | 1006.7 |
| 20260507082133 | 41 | 306 | 4.3 | 5.2 | 0.00 | 0.00 | 0.00 | 93 | 1006.6 |
| 20260507081630 | 41 | 142 | 0.9 | 1.7 | 0.00 | 0.00 | 0.00 | 94 | 1006.9 |
| 20260507081126 | 41 | 333 | 2.6 | 5.2 | 0.00 | 0.00 | 0.00 | 94 | 1006.9 |
| 20260507080623 | 41 | 312 | 2.6 | 2.6 | 0.00 | 0.00 | 0.00 | 95 | 1006.9 |
| 20260507080120 | 41 | 249 | 2.6 | 2.6 | 0.00 | 0.00 | 0.00 | 96 | 1007.0 |
| 20260507075620 | 41 | 312 | 2.6 | 2.6 | 0.00 | 0.00 | 0.00 | 96 | 1007.2 |
| 20260507075116 | 41 | 302 | 4.3 | 5.2 | 0.00 | 0.00 | 0.00 | 96 | 1006.7 |
| 20260507074613 | 42 | 295 | 2.6 | 2.6 | 0.00 | 0.00 | 0.00 | 96 | 1006.9 |
| 20260507074112 | 42 | 20 | 2.6 | 2.6 | 0.00 | 0.00 | 0.00 | 96 | 1007.1 |
| 20260507073607 | 42 | 316 | 3.5 | 4.3 | 0.00 | 0.00 | 0.00 | 97 | 1006.7 |
| 20260507073104 | 42 | 29 | 1.7 | 1.7 | 0.00 | 0.00 | 0.00 | 97 | 1006.7 |
| 20260507072601 | 42 | 309 | 1.7 | 1.7 | 0.00 | 0.00 | 0.00 | 96 | 1006.9 |
| 20260507072059 | 42 | 334 | 3.5 | 4.3 | 0.00 | 0.00 | 0.00 | 97 | 1007.2 |
| 20260507071556 | 42 | 288 | 3.5 | 4.3 | 0.00 | 0.00 | 0.00 | 97 | 1006.9 |
| 20260507071052 | 42 | 309 | 2.6 | 2.6 | 0.00 | 0.00 | 0.00 | 97 | 1007.0 |
| 20260507070549 | 42 | 328 | 4.3 | 5.2 | 0.00 | 0.00 | 0.00 | 97 | 1006.9 |
| 20260507070046 | 43 | 268 | 4.3 | 6.1 | 0.00 | 0.00 | 0.00 | 98 | 1006.6 |
| 20260507065543 | 43 | 217 | 2.6 | 2.6 | 0.00 | 0.00 | 0.00 | 97 | 1006.6 |
| 20260507065040 | 43 | 301 | 3.5 | 4.3 | 0.00 | 0.00 | 0.00 | 97 | 1006.5 |
| 20260507064538 | 43 | 314 | 2.6 | 2.6 | 0.00 | 0.00 | 0.00 | 97 | 1006.3 |
| 20260507064036 | 43 | 299 | 2.6 | 2.6 | 0.00 | 0.00 | 0.00 | 97 | 1006.5 |
| 20260507063533 | 43 | 329 | 2.6 | 2.6 | 0.00 | 0.00 | 0.00 | 96 | 1006.1 |
| 20260507063030 | 43 | 300 | 2.6 | 2.6 | 0.00 | 0.00 | 0.00 | 96 | 1005.9 |
| 20260507062527 | 43 | 342 | 1.7 | 1.7 | 0.00 | 0.00 | 0.00 | 97 | 1006.0 |
| 20260507062025 | 43 | 309 | 0.9 | 1.7 | 0.00 | 0.00 | 0.00 | 97 | 1005.9 |
| 20260507061522 | 43 | 334 | 1.7 | 1.7 | 0.00 | 0.00 | 0.00 | 97 | 1005.7 |
| 20260507061020 | 43 | 174 | 0.9 | 0.9 | 0.00 | 0.00 | 0.00 | 98 | 1006.2 |
| 20260507060518 | 43 | 349 | 0.0 | 0.9 | 0.00 | 0.00 | 0.00 | 98 | 1006.2 |
| 20260507060014 | 43 | 353 | 0.9 | 1.7 | 0.00 | 0.00 | 0.00 | 98 | 1006.4 |
| 20260507055509 | 43 | 315 | 1.7 | 1.7 | 0.00 | 0.00 | 0.00 | 98 | 1006.3 |
| 20260507055005 | 43 | 316 | 2.6 | 2.6 | 0.00 | 0.00 | 0.00 | 99 | 1006.1 |
| 20260507054501 | 43 | 349 | 0.9 | 0.9 | 0.00 | 0.00 | 0.00 | 99 | 1006.3 |
| 20260507053959 | 43 | 31 | 0.9 | 0.9 | 0.00 | 0.00 | 0.00 | 99 | 1006.2 |
| 20260507053457 | 43 | 57 | 0.0 | 0.0 | 0.00 | 0.00 | 0.00 | 99 | 1006.1 |
| 20260507052955 | 43 | 14 | 0.0 | 0.0 | 0.00 | 0.00 | 0.00 | 99 | 1006.2 |
| 20260507052452 | 43 | 36 | 0.0 | 0.0 | 0.00 | 0.00 | 0.00 | 99 | 1006.2 |
| 20260507051949 | 43 | 7 | 0.0 | 0.9 | 0.00 | 0.00 | 0.00 | 99 | 1006.3 |
| 20260507051446 | 43 | 40 | 0.0 | 0.9 | 0.00 | 0.00 | 0.00 | 99 | 1006.4 |
| 20260507050943 | 43 | 356 | 0.9 | 0.9 | 0.00 | 0.00 | 0.00 | 99 | 1006.4 |
| 20260507050440 | 43 | 41 | 0.9 | 0.9 | 0.00 | 0.00 | 0.00 | 99 | 1006.6 |
| 20260507045937 | 43 | 39 | 0.9 | 0.9 | 0.00 | 0.00 | 0.00 | 99 | 1006.5 |
| 20260507045433 | 44 | 60 | 0.0 | 0.0 | 0.00 | 0.00 | 0.00 | 99 | 1006.0 |
| 20260507044930 | 44 | 56 | 0.0 | 0.0 | 0.00 | 0.00 | 0.00 | 99 | 1006.5 |
| 20260507044427 | 43 | 57 | 0.0 | 0.0 | 0.00 | 0.00 | 0.00 | 99 | 1006.5 |
| 20260507043923 | 43 | 55 | 0.0 | 0.0 | 0.00 | 0.00 | 0.00 | 99 | 1006.6 |
| 20260507043419 | 43 | 47 | 0.0 | 0.9 | 0.00 | 0.00 | 0.00 | 99 | 1006.6 |
| 20260507042916 | 43 | 59 | 0.0 | 0.0 | 0.00 | 0.00 | 0.00 | 99 | 1006.5 |
| 20260507042413 | 43 | 23 | 0.0 | 0.9 | 0.00 | 0.00 | 0.00 | 99 | 1006.4 |
| 20260507041908 | 43 | 25 | 0.9 | 1.7 | 0.00 | 0.00 | 0.00 | 99 | 1006.3 |
| 20260507041405 | 44 | 41 | 0.9 | 0.9 | 0.00 | 0.00 | 0.00 | 99 | 1006.7 |
| 20260507040903 | 44 | 312 | 0.9 | 0.9 | 0.00 | 0.00 | 0.00 | 99 | 1006.6 |
| 20260507040404 | 44 | 298 | 1.7 | 1.7 | 0.00 | 0.00 | 0.00 | 99 | 1006.9 |
| 20260507035859 | 44 | 319 | 1.7 | 1.7 | 0.00 | 0.57 | 0.57 | 99 | 1006.7 |
| 20260507035356 | 44 | 16 | 1.7 | 1.7 | 0.00 | 0.57 | 0.57 | 99 | 1006.5 |
| 20260507034853 | 44 | 19 | 0.9 | 1.7 | 0.00 | 0.57 | 0.57 | 99 | 1006.3 |
| 20260507034350 | 44 | 32 | 1.7 | 1.7 | 0.00 | 0.57 | 0.57 | 99 | 1006.3 |
| 20260507033848 | 44 | 28 | 0.9 | 0.9 | 0.00 | 0.57 | 0.57 | 99 | 1006.6 |
| 20260507033346 | 44 | 358 | 0.9 | 0.9 | 0.00 | 0.57 | 0.57 | 99 | 1006.6 |
| 20260507032842 | 44 | 129 | 2.6 | 4.3 | 0.00 | 0.57 | 0.57 | 99 | 1006.7 |
| 20260507032339 | 44 | 14 | 0.9 | 0.9 | 0.00 | 0.57 | 0.57 | 99 | 1007.1 |
| 20260507031835 | 44 | 315 | 1.7 | 1.7 | 0.00 | 0.57 | 0.57 | 99 | 1006.9 |
| 20260507031332 | 44 | 329 | 0.9 | 1.7 | 0.00 | 0.57 | 0.57 | 99 | 1007.0 |
| 20260507030828 | 44 | 334 | 0.9 | 1.7 | 0.00 | 0.57 | 0.57 | 99 | 1006.7 |
| 20260507030326 | 44 | 298 | 2.6 | 2.6 | 0.00 | 0.57 | 0.57 | 99 | 1006.4 |
| 20260507025823 | 44 | 26 | 1.7 | 2.6 | 0.00 | 0.57 | 0.57 | 99 | 1006.4 |
| 20260507025320 | 44 | 324 | 1.7 | 2.6 | 0.00 | 0.57 | 0.57 | 99 | 1006.5 |
| 20260507024818 | 44 | 20 | 0.9 | 0.9 | 0.00 | 0.57 | 0.57 | 99 | 1006.6 |
| 20260507024315 | 44 | 329 | 2.6 | 2.6 | 0.00 | 0.57 | 0.57 | 99 | 1006.7 |
| 20260507023811 | 44 | 8 | 0.9 | 0.9 | 0.00 | 0.57 | 0.57 | 99 | 1007.0 |
| 20260507023307 | 45 | 339 | 1.7 | 1.7 | 0.00 | 0.57 | 0.57 | 99 | 1007.0 |
| 20260507022805 | 45 | 359 | 0.9 | 0.9 | 0.00 | 0.57 | 0.57 | 99 | 1007.3 |
| 20260507022301 | 45 | 58 | 0.9 | 1.7 | 0.00 | 0.57 | 0.57 | 99 | 1007.1 |
| 20260507021757 | 45 | 353 | 1.7 | 1.7 | 0.00 | 0.57 | 0.57 | 99 | 1006.9 |
| 20260507021253 | 45 | 42 | 0.9 | 1.7 | 0.00 | 0.57 | 0.57 | 99 | 1006.9 |
| 20260507020751 | 45 | 8 | 1.7 | 1.7 | 0.00 | 0.57 | 0.57 | 99 | 1007.0 |
| 20260507020247 | 45 | 327 | 1.7 | 1.7 | 0.00 | 0.57 | 0.57 | 99 | 1007.2 |
| 20260507015745 | 45 | 26 | 0.9 | 0.9 | 0.00 | 0.57 | 0.57 | 99 | 1007.1 |
| 20260507015242 | 45 | 354 | 0.9 | 0.9 | 0.00 | 0.57 | 0.57 | 99 | 1006.9 |
| 20260507014739 | 45 | 358 | 1.7 | 1.7 | 0.00 | 0.57 | 0.57 | 99 | 1007.0 |
| 20260507014235 | 45 | 325 | 2.6 | 2.6 | 0.00 | 0.57 | 0.57 | 99 | 1006.9 |
| 20260507013732 | 45 | 16 | 0.0 | 0.9 | 0.00 | 0.57 | 0.57 | 99 | 1006.5 |
| 20260507013229 | 45 | 308 | 0.9 | 0.9 | 0.00 | 0.57 | 0.57 | 99 | 1006.7 |
| 20260507012727 | 46 | 342 | 1.7 | 1.7 | 0.00 | 0.57 | 0.57 | 99 | 1006.6 |
| 20260507012222 | 46 | 39 | 0.0 | 0.0 | 0.00 | 0.57 | 0.57 | 99 | 1006.6 |
| 20260507011720 | 46 | 315 | 1.7 | 1.7 | 0.00 | 0.57 | 0.57 | 99 | 1006.6 |
| 20260507011216 | 46 | 9 | 0.9 | 0.9 | 0.00 | 0.57 | 0.57 | 99 | 1006.6 |
| 20260507010711 | 46 | 352 | 0.9 | 0.9 | 0.00 | 0.57 | 0.57 | 99 | 1006.6 |
| 20260507010207 | 46 | 42 | 0.0 | 0.0 | 0.00 | 0.57 | 0.57 | 99 | 1006.3 |
| 20260507005705 | 46 | 35 | 0.9 | 1.7 | 0.00 | 0.57 | 0.57 | 99 | 1006.3 |
| 20260507005201 | 46 | 56 | 0.9 | 0.9 | 0.00 | 0.57 | 0.57 | 99 | 1006.1 |
| 20260507004657 | 46 | 28 | 0.9 | 0.9 | 0.07 | 0.57 | 0.57 | 99 | 1006.2 |
| 20260507004155 | 46 | 357 | 1.7 | 1.7 | 0.07 | 0.57 | 0.57 | 99 | 1006.0 |
| 20260507003651 | 46 | 67 | 0.9 | 1.7 | 0.00 | 0.56 | 0.56 | 99 | 1005.9 |
| 20260507003151 | 46 | 314 | 0.9 | 1.7 | 0.00 | 0.56 | 0.56 | 99 | 1006.0 |
| 20260507002648 | 46 | 14 | 0.9 | 0.9 | 0.00 | 0.56 | 0.56 | 99 | 1005.9 |
| 20260507002144 | 46 | 29 | 2.6 | 4.3 | 0.00 | 0.56 | 0.56 | 99 | 1006.0 |
| 20260507001641 | 46 | 39 | 1.7 | 1.7 | 0.00 | 0.56 | 0.56 | 99 | 1005.8 |
| 20260507001138 | 46 | 19 | 2.6 | 2.6 | 0.00 | 0.56 | 0.56 | 99 | 1005.9 |
| 20260507000635 | 46 | 168 | 1.7 | 1.7 | 0.00 | 0.56 | 0.56 | 99 | 1005.7 |
| 20260507000130 | 46 | 303 | 2.6 | 4.3 | 0.00 | 0.56 | 0.56 | 99 | 1005.4 |
| 20260506235628 | 46 | 340 | 1.7 | 2.6 | 0.00 | 0.56 | 0.56 | 99 | 1005.2 |
| 20260506235127 | 46 | 304 | 1.7 | 4.3 | 0.00 | 0.56 | 0.56 | 99 | 1005.4 |
| 20260506234625 | 46 | 259 | 1.7 | 1.7 | 0.00 | 0.56 | 0.56 | 99 | 1005.3 |
| 20260506234122 | 46 | 8 | 1.7 | 2.6 | 0.00 | 0.56 | 0.56 | 99 | 1005.1 |
| 20260506233619 | 46 | 311 | 1.7 | 2.6 | 0.00 | 0.56 | 0.56 | 99 | 1004.9 |
| 20260506233116 | 46 | 285 | 1.7 | 1.7 | 0.00 | 0.56 | 0.56 | 99 | 1005.1 |
| 20260506232612 | 46 | 347 | 1.7 | 1.7 | 0.00 | 0.56 | 0.56 | 99 | 1004.7 |
| 20260506232107 | 46 | 278 | 2.6 | 4.3 | 0.00 | 0.56 | 0.56 | 99 | 1004.7 |
| 20260506231605 | 46 | 301 | 1.7 | 1.7 | 0.00 | 0.56 | 0.56 | 99 | 1004.6 |
| 20260506231103 | 46 | 44 | 0.0 | 0.0 | 0.00 | 0.56 | 0.56 | 99 | 1004.5 |
| 20260506230559 | 46 | 314 | 0.9 | 1.7 | 0.00 | 0.56 | 0.56 | 99 | 1004.7 |
| 20260506230057 | 46 | 40 | 0.0 | 0.9 | 0.00 | 0.56 | 0.56 | 99 | 1004.8 |
| 20260506225553 | 46 | 227 | 1.7 | 2.6 | 0.00 | 0.56 | 0.56 | 99 | 1004.7 |
| 20260506225050 | 46 | 341 | 0.9 | 1.7 | 0.05 | 0.56 | 0.56 | 99 | 1004.6 |
| 20260506224547 | 47 | 325 | 0.0 | 0.9 | 0.05 | 0.56 | 0.56 | 99 | 1004.5 |
| 20260506224043 | 46 | 15 | 0.9 | 0.9 | 0.00 | 0.55 | 0.55 | 99 | 1004.7 |
| 20260506223539 | 46 | 296 | 1.7 | 1.7 | 0.00 | 0.55 | 0.55 | 99 | 1004.4 |
| 20260506223036 | 47 | 14 | 1.7 | 1.7 | 0.00 | 0.55 | 0.55 | 99 | 1004.4 |
| 20260506222533 | 47 | 107 | 0.9 | 1.7 | 0.00 | 0.55 | 0.55 | 99 | 1004.4 |
| 20260506222029 | 47 | 230 | 0.9 | 1.7 | 0.00 | 0.55 | 0.55 | 99 | 1004.1 |
| 20260506221527 | 47 | 318 | 3.5 | 4.3 | 0.00 | 0.55 | 0.55 | 99 | 1004.2 |
| 20260506221025 | 47 | 306 | 1.7 | 1.7 | 0.00 | 0.55 | 0.55 | 99 | 1004.0 |
| 20260506220520 | 47 | 205 | 2.6 | 2.6 | 0.00 | 0.55 | 0.55 | 99 | 1003.8 |
| 20260506220016 | 47 | 277 | 2.6 | 4.3 | 0.00 | 0.55 | 0.55 | 99 | 1003.9 |
| 20260506215513 | 47 | 343 | 1.7 | 2.6 | 0.00 | 0.55 | 0.55 | 99 | 1003.7 |
| 20260506215009 | 47 | 316 | 1.7 | 2.6 | 0.00 | 0.55 | 0.55 | 99 | 1003.8 |
| 20260506214506 | 47 | 310 | 3.5 | 5.2 | 0.00 | 0.55 | 0.55 | 99 | 1003.7 |
| 20260506214003 | 48 | 327 | 0.9 | 0.9 | 0.00 | 0.55 | 0.55 | 99 | 1003.8 |
| 20260506213501 | 48 | 34 | 0.9 | 1.7 | 0.00 | 0.55 | 0.55 | 99 | 1002.8 |
| 20260506212958 | 48 | 344 | 1.7 | 1.7 | 0.00 | 0.55 | 0.55 | 99 | 1003.2 |
| 20260506212454 | 48 | 264 | 1.7 | 2.6 | 0.07 | 0.55 | 0.55 | 99 | 1003.2 |
| 20260506211949 | 48 | 31 | 1.7 | 1.7 | 0.07 | 0.55 | 0.55 | 99 | 1003.3 |
| 20260506211445 | 49 | 343 | 0.9 | 1.7 | 0.00 | 0.54 | 0.54 | 99 | 1003.1 |
| 20260506210943 | 49 | 302 | 2.6 | 5.2 | 0.00 | 0.54 | 0.54 | 99 | 1002.9 |
| 20260506210439 | 50 | 312 | 0.9 | 1.7 | 0.00 | 0.54 | 0.54 | 99 | 1002.8 |
| 20260506205936 | 50 | 319 | 1.7 | 2.6 | 0.00 | 0.54 | 0.54 | 99 | 1002.9 |
| 20260506205432 | 50 | 341 | 0.9 | 0.9 | 0.00 | 0.54 | 0.54 | 99 | 1002.6 |
| 20260506204928 | 51 | 316 | 1.7 | 1.7 | 0.00 | 0.54 | 0.54 | 99 | 1002.5 |
| 20260506204427 | 51 | 351 | 2.6 | 2.6 | 0.00 | 0.54 | 0.54 | 99 | 1002.5 |
| 20260506203924 | 51 | 355 | 1.7 | 1.7 | 0.00 | 0.54 | 0.54 | 99 | 1002.4 |
| 20260506203421 | 51 | 55 | 0.9 | 0.9 | 0.00 | 0.54 | 0.54 | 99 | 1002.4 |
| 20260506202918 | 51 | 29 | 0.0 | 0.9 | 0.00 | 0.54 | 0.54 | 99 | 1002.6 |
| 20260506202415 | 51 | 330 | 2.6 | 2.6 | 0.00 | 0.54 | 0.54 | 99 | 1002.3 |
| 20260506201911 | 52 | 348 | 0.9 | 0.9 | 0.00 | 0.54 | 0.54 | 99 | 1002.2 |
| 20260506201409 | 52 | 315 | 0.9 | 1.7 | 0.00 | 0.54 | 0.54 | 99 | 1002.1 |
| 20260506200905 | 52 | 26 | 0.9 | 0.9 | 0.00 | 0.54 | 0.54 | 99 | 1002.0 |
| 20260506200401 | 52 | 342 | 0.9 | 1.7 | 0.00 | 0.54 | 0.54 | 99 | 1001.9 |
| 20260506195858 | 52 | 337 | 0.9 | 1.7 | 0.00 | 0.54 | 0.54 | 99 | 1001.9 |
| 20260506195355 | 53 | 11 | 2.6 | 2.6 | 0.00 | 0.54 | 0.54 | 99 | 1002.1 |
| 20260506194852 | 53 | 301 | 2.6 | 2.6 | 0.00 | 0.54 | 0.54 | 99 | 1002.0 |
| 20260506194349 | 54 | 334 | 2.6 | 2.6 | 0.00 | 0.54 | 0.54 | 99 | 1002.1 |
| 20260506193846 | 55 | 341 | 2.6 | 2.6 | 0.00 | 0.54 | 0.54 | 99 | 1002.2 |
| 20260506193342 | 57 | 347 | 1.7 | 1.7 | 0.00 | 0.54 | 0.54 | 99 | 1001.9 |
| 20260506192839 | 59 | 315 | 0.0 | 0.9 | 0.00 | 0.54 | 0.54 | 99 | 1001.7 |
| 20260506192336 | 59 | 252 | 0.0 | 0.0 | 0.00 | 0.54 | 0.54 | 99 | 1001.9 |
| 20260506191833 | 59 | 62 | 0.0 | 0.0 | 0.00 | 0.54 | 0.54 | 99 | 1001.8 |
| 20260506191329 | 59 | 64 | 0.0 | 0.0 | 0.00 | 0.54 | 0.54 | 99 | 1002.0 |
| 20260506190826 | 59 | 71 | 0.0 | 0.0 | 0.00 | 0.54 | 0.54 | 99 | 1001.8 |
| 20260506190322 | 59 | 82 | 0.0 | 0.0 | 0.00 | 0.54 | 0.54 | 99 | 1002.0 |
| 20260506185820 | 59 | 68 | 0.0 | 0.0 | 0.00 | 0.54 | 0.54 | 99 | 1001.8 |
| 20260506185316 | 59 | 87 | 0.0 | 0.0 | 0.00 | 0.54 | 0.54 | 99 | 1002.0 |
| 20260506184813 | 59 | 85 | 0.0 | 0.0 | 0.00 | 0.54 | 0.54 | 99 | 1001.8 |
| 20260506184311 | 58 | 82 | 0.0 | 0.0 | 0.00 | 0.54 | 0.54 | 99 | 1002.0 |
| 20260506183808 | 58 | 79 | 0.0 | 0.0 | 0.00 | 0.54 | 0.54 | 99 | 1002.1 |
| 20260506183303 | 58 | 60 | 0.0 | 0.0 | 0.00 | 0.54 | 0.54 | 99 | 1001.8 |
| 20260506182800 | 58 | 86 | 0.0 | 0.0 | 0.05 | 0.54 | 0.54 | 99 | 1002.0 |
| 20260506182257 | 57 | 61 | 0.0 | 0.0 | 0.05 | 0.54 | 0.54 | 99 | 1002.2 |
| 20260506181755 | 57 | 64 | 0.0 | 0.0 | 0.00 | 0.53 | 0.53 | 99 | 1002.3 |
| 20260506181253 | 57 | 72 | 0.0 | 0.0 | 0.07 | 0.53 | 0.53 | 99 | 1002.1 |
| 20260506180750 | 57 | 71 | 0.0 | 0.0 | 0.12 | 0.53 | 0.53 | 99 | 1002.2 |
| 20260506180245 | 56 | 82 | 0.0 | 0.0 | 0.12 | 0.52 | 0.52 | 99 | 1002.3 |
| 20260506175742 | 56 | 83 | 0.0 | 0.0 | 0.14 | 0.51 | 0.51 | 99 | 1002.3 |
| 20260506175239 | 56 | 76 | 0.0 | 0.0 | 0.12 | 0.50 | 0.50 | 99 | 1002.3 |
| 20260506174737 | 56 | 69 | 0.0 | 0.0 | 0.12 | 0.49 | 0.49 | 99 | 1002.4 |
| 20260506174233 | 56 | 64 | 0.0 | 0.0 | 0.12 | 0.48 | 0.48 | 99 | 1002.3 |
| 20260506173732 | 55 | 71 | 0.0 | 0.0 | 0.19 | 0.48 | 0.48 | 99 | 1002.2 |
| 20260506173228 | 55 | 67 | 0.0 | 0.0 | 0.12 | 0.46 | 0.46 | 99 | 1002.5 |
| 20260506172724 | 55 | 70 | 0.0 | 0.0 | 0.12 | 0.45 | 0.45 | 99 | 1002.1 |
| 20260506172221 | 55 | 69 | 0.0 | 0.0 | 0.07 | 0.44 | 0.44 | 99 | 1002.5 |
| 20260506171719 | 55 | 61 | 0.0 | 0.0 | 0.05 | 0.43 | 0.43 | 99 | 1002.4 |
| 20260506171216 | 55 | 64 | 0.0 | 0.0 | 0.12 | 0.43 | 0.43 | 99 | 1002.5 |
| 20260506170713 | 55 | 84 | 0.0 | 0.0 | 0.07 | 0.42 | 0.42 | 99 | 1002.7 |
| 20260506170210 | 55 | 65 | 0.0 | 0.0 | 0.12 | 0.42 | 0.42 | 99 | 1002.4 |
| 20260506165709 | 54 | 71 | 0.0 | 0.0 | 0.12 | 0.41 | 0.41 | 99 | 1002.5 |
| 20260506165205 | 54 | 63 | 0.0 | 0.0 | 0.12 | 0.40 | 0.40 | 99 | 1002.7 |
| 20260506164702 | 54 | 58 | 0.0 | 0.0 | 0.19 | 0.40 | 0.40 | 99 | 1002.6 |
| 20260506164159 | 54 | 69 | 0.0 | 0.0 | 0.14 | 0.38 | 0.38 | 99 | 1002.7 |
| 20260506163655 | 54 | 69 | 0.0 | 0.0 | 0.12 | 0.37 | 0.37 | 99 | 1002.7 |